createdAt,value
2017-09-16T00:00:35.751Z,8.91
2017-09-16T00:01:36.041Z,8.86
2017-09-16T00:02:36.011Z,8.93
2017-09-16T00:03:35.997Z,8.83
2017-09-16T00:04:35.978Z,8.89
2017-09-16T00:05:35.938Z,8.88
2017-09-16T00:06:35.922Z,8.91
2017-09-16T00:07:35.902Z,8.83
2017-09-16T00:08:35.878Z,8.85
2017-09-16T00:09:35.846Z,8.79
2017-09-16T00:10:35.826Z,8.93
2017-09-16T00:11:35.812Z,8.85
2017-09-16T00:12:35.777Z,8.83
2017-09-16T00:13:35.757Z,8.85
2017-09-16T00:14:35.734Z,8.85
2017-09-16T00:15:35.711Z,8.83
2017-09-16T00:16:35.688Z,8.85
2017-09-16T00:17:35.350Z,8.83
2017-09-16T00:18:35.635Z,8.93
2017-09-16T00:19:35.614Z,8.93
2017-09-16T00:20:35.282Z,8.88
2017-09-16T00:21:35.567Z,8.76
2017-09-16T00:22:35.547Z,8.79
2017-09-16T00:23:35.513Z,8.71
2017-09-16T00:24:35.495Z,8.75
2017-09-16T00:25:35.468Z,8.8
2017-09-16T00:26:35.139Z,8.8
2017-09-16T00:27:35.422Z,8.67
2017-09-16T00:28:35.397Z,8.63
2017-09-16T00:29:35.377Z,8.68
2017-09-16T00:30:35.350Z,8.71
2017-09-16T00:31:35.333Z,8.75
2017-09-16T00:32:35.303Z,8.7
2017-09-16T00:33:35.279Z,8.7
2017-09-16T00:34:35.254Z,8.7
2017-09-16T00:35:35.247Z,8.67
2017-09-16T00:36:35.213Z,8.7
2017-09-16T00:37:35.180Z,8.68
2017-09-16T00:38:35.164Z,8.78
2017-09-16T00:39:35.189Z,8.65
2017-09-16T00:40:35.112Z,8.68
2017-09-16T00:41:35.089Z,8.7
2017-09-16T00:42:35.064Z,8.67
2017-09-16T00:43:35.043Z,8.68
2017-09-16T00:44:35.028Z,8.73
2017-09-16T00:45:34.996Z,8.68
2017-09-16T00:46:34.973Z,8.7
2017-09-16T00:47:34.947Z,8.71
2017-09-16T00:48:34.930Z,8.67
2017-09-16T00:49:34.905Z,8.67
2017-09-16T00:50:34.872Z,8.68
2017-09-16T00:51:34.601Z,8.68
2017-09-16T00:52:34.854Z,8.68
2017-09-16T00:53:34.804Z,8.76
2017-09-16T00:54:34.783Z,8.68
2017-09-16T00:55:34.763Z,8.64
2017-09-16T00:56:34.735Z,8.61
2017-09-16T00:57:34.711Z,8.7
2017-09-16T00:58:34.721Z,8.64
2017-09-16T00:59:34.378Z,8.63
2017-09-16T01:00:34.330Z,8.67
2017-09-16T01:01:34.680Z,8.67
2017-09-16T01:02:34.590Z,8.7
2017-09-16T01:03:34.566Z,8.6
2017-09-16T01:04:34.547Z,8.65
2017-09-16T01:05:34.519Z,8.64
2017-09-16T01:06:34.496Z,8.7
2017-09-16T01:07:34.161Z,8.64
2017-09-16T01:08:34.446Z,8.64
2017-09-16T01:09:34.425Z,8.64
2017-09-16T01:10:34.399Z,8.64
2017-09-16T01:11:34.382Z,8.64
2017-09-16T01:12:34.045Z,8.68
2017-09-16T01:13:34.348Z,8.52
2017-09-16T01:14:34.303Z,8.55
2017-09-16T01:15:34.282Z,8.6
2017-09-16T01:16:34.256Z,8.57
2017-09-16T01:17:34.243Z,8.49
2017-09-16T01:18:34.216Z,8.6
2017-09-16T01:19:34.188Z,8.54
2017-09-16T01:20:34.165Z,8.58
2017-09-16T01:21:34.134Z,8.55
2017-09-16T01:22:34.117Z,8.57
2017-09-16T01:23:33.779Z,8.54
2017-09-16T01:24:34.062Z,8.58
2017-09-16T01:25:34.045Z,8.47
2017-09-16T01:26:34.030Z,8.5
2017-09-16T01:27:34.005Z,8.6
2017-09-16T01:28:34.014Z,8.55
2017-09-16T01:29:33.973Z,8.5
2017-09-16T01:30:33.923Z,8.58
2017-09-16T01:31:33.900Z,8.49
2017-09-16T01:32:33.913Z,8.55
2017-09-16T01:33:33.856Z,8.58
2017-09-16T01:34:33.832Z,8.47
2017-09-16T01:35:33.809Z,8.46
2017-09-16T01:36:33.778Z,8.45
2017-09-16T01:37:33.759Z,8.37
2017-09-16T01:38:33.733Z,8.45
2017-09-16T01:39:33.708Z,8.45
2017-09-16T01:40:33.375Z,8.37
2017-09-16T01:41:33.661Z,8.39
2017-09-16T01:42:33.645Z,8.34
2017-09-16T01:43:33.623Z,8.36
2017-09-16T01:44:33.641Z,8.36
2017-09-16T01:45:33.570Z,8.39
2017-09-16T01:46:33.551Z,8.32
2017-09-16T01:47:33.548Z,8.34
2017-09-16T01:48:33.506Z,8.36
2017-09-16T01:49:33.467Z,8.39
2017-09-16T01:50:33.443Z,8.31
2017-09-16T01:51:33.430Z,8.31
2017-09-16T01:52:33.394Z,8.31
2017-09-16T01:53:33.373Z,8.39
2017-09-16T01:54:33.362Z,8.32
2017-09-16T01:55:33.332Z,8.28
2017-09-16T01:56:33.313Z,8.34
2017-09-16T01:57:33.274Z,8.27
2017-09-16T01:58:33.275Z,8.24
2017-09-16T01:59:33.238Z,8.21
2017-09-16T02:00:33.209Z,8.25
2017-09-16T02:01:32.881Z,8.22
2017-09-16T02:02:33.168Z,8.22
2017-09-16T02:03:33.135Z,8.24
2017-09-16T02:04:33.114Z,8.22
2017-09-16T02:05:33.085Z,8.34
2017-09-16T02:06:33.065Z,8.28
2017-09-16T02:07:33.047Z,8.25
2017-09-16T02:08:33.011Z,8.25
2017-09-16T02:09:33.001Z,8.22
2017-09-16T02:10:32.969Z,8.34
2017-09-16T02:11:32.939Z,8.28
2017-09-16T02:12:32.924Z,8.31
2017-09-16T02:13:32.893Z,8.32
2017-09-16T02:14:32.866Z,8.22
2017-09-16T02:15:32.864Z,8.25
2017-09-16T02:16:32.880Z,8.39
2017-09-16T02:17:32.798Z,8.29
2017-09-16T02:18:32.775Z,8.36
2017-09-16T02:19:32.757Z,8.27
2017-09-16T02:20:32.734Z,8.31
2017-09-16T02:21:32.746Z,8.34
2017-09-16T02:22:32.690Z,8.34
2017-09-16T02:23:32.348Z,8.31
2017-09-16T02:24:32.633Z,8.25
2017-09-16T02:25:32.611Z,8.25
2017-09-16T02:26:32.586Z,8.21
2017-09-16T02:27:32.760Z,8.22
2017-09-16T02:28:32.534Z,8.25
2017-09-16T02:29:32.515Z,8.25
2017-09-16T02:30:32.497Z,8.24
2017-09-16T02:31:32.516Z,8.31
2017-09-16T02:32:32.130Z,8.27
2017-09-16T02:33:32.420Z,8.24
2017-09-16T02:34:32.396Z,8.25
2017-09-16T02:35:32.374Z,8.27
2017-09-16T02:36:32.343Z,8.24
2017-09-16T02:37:32.018Z,8.27
2017-09-16T02:38:32.300Z,8.25
2017-09-16T02:39:32.281Z,8.22
2017-09-16T02:40:32.251Z,8.25
2017-09-16T02:41:32.236Z,8.25
2017-09-16T02:42:32.208Z,8.25
2017-09-16T02:43:32.177Z,8.22
2017-09-16T02:44:31.841Z,8.27
2017-09-16T02:45:32.136Z,8.24
2017-09-16T02:46:32.105Z,8.18
2017-09-16T02:47:32.085Z,8.18
2017-09-16T02:48:32.056Z,8.21
2017-09-16T02:49:32.031Z,8.25
2017-09-16T02:50:32.012Z,8.25
2017-09-16T02:51:31.988Z,8.2
2017-09-16T02:52:32.020Z,8.14
2017-09-16T02:53:31.951Z,8.22
2017-09-16T02:54:31.919Z,8.22
2017-09-16T02:55:31.892Z,8.29
2017-09-16T02:56:31.863Z,8.27
2017-09-16T02:57:31.837Z,8.32
2017-09-16T02:58:31.820Z,8.36
2017-09-16T02:59:31.485Z,8.32
2017-09-16T03:00:31.793Z,8.34
2017-09-16T03:01:31.742Z,8.32
2017-09-16T03:02:31.723Z,8.28
2017-09-16T03:03:31.708Z,8.36
2017-09-16T03:04:31.673Z,8.32
2017-09-16T03:05:31.646Z,8.24
2017-09-16T03:06:31.624Z,8.22
2017-09-16T03:07:31.292Z,8.32
2017-09-16T03:08:31.576Z,8.31
2017-09-16T03:09:31.553Z,8.34
2017-09-16T03:10:31.532Z,8.29
2017-09-16T03:11:31.077Z,8.36
2017-09-16T03:12:31.175Z,8.43
2017-09-16T03:13:31.462Z,8.47
2017-09-16T03:14:31.430Z,8.5
2017-09-16T03:15:31.407Z,8.49
2017-09-16T03:16:31.382Z,8.49
2017-09-16T03:17:31.051Z,8.6
2017-09-16T03:18:31.339Z,8.5
2017-09-16T03:19:31.311Z,8.57
2017-09-16T03:20:31.313Z,8.65
2017-09-16T03:21:31.307Z,8.68
2017-09-16T03:22:31.251Z,8.67
2017-09-16T03:23:31.249Z,8.68
2017-09-16T03:24:31.194Z,8.75
2017-09-16T03:25:31.385Z,8.7
2017-09-16T03:26:31.148Z,8.8
2017-09-16T03:27:31.122Z,8.71
2017-09-16T03:28:31.101Z,8.78
2017-09-16T03:29:31.079Z,8.65
2017-09-16T03:30:31.059Z,8.71
2017-09-16T03:31:31.022Z,8.79
2017-09-16T03:32:31.006Z,8.82
2017-09-16T03:33:30.975Z,8.78
2017-09-16T03:34:30.954Z,8.78
2017-09-16T03:35:30.933Z,8.8
2017-09-16T03:36:30.603Z,8.8
2017-09-16T03:37:30.893Z,8.82
2017-09-16T03:38:30.859Z,8.79
2017-09-16T03:39:30.839Z,8.91
2017-09-16T03:40:30.815Z,8.94
2017-09-16T03:41:30.786Z,8.88
2017-09-16T03:42:30.766Z,8.86
2017-09-16T03:43:30.743Z,8.88
2017-09-16T03:44:30.719Z,9
2017-09-16T03:45:30.697Z,8.96
2017-09-16T03:46:30.694Z,8.96
2017-09-16T03:47:30.342Z,8.94
2017-09-16T03:48:30.621Z,8.97
2017-09-16T03:49:30.604Z,9
2017-09-16T03:50:30.574Z,8.97
2017-09-16T03:51:30.593Z,9
2017-09-16T03:52:30.538Z,9.04
2017-09-16T03:53:30.503Z,9.04
2017-09-16T03:54:30.480Z,9.04
2017-09-16T03:55:30.150Z,9.12
2017-09-16T03:56:30.441Z,9.03
2017-09-16T03:57:30.412Z,9.1
2017-09-16T03:58:30.383Z,9.13
2017-09-16T03:59:30.364Z,9.1
2017-09-16T04:00:30.035Z,9.13
2017-09-16T04:01:30.323Z,9.17
2017-09-16T04:02:30.286Z,9.13
2017-09-16T04:03:30.305Z,9.13
2017-09-16T04:04:29.939Z,9.12
2017-09-16T04:05:30.219Z,9.08
2017-09-16T04:06:30.205Z,9.06
2017-09-16T04:07:30.175Z,9.04
2017-09-16T04:08:30.143Z,9.1
2017-09-16T04:09:30.122Z,9.19
2017-09-16T04:10:29.797Z,9.22
2017-09-16T04:11:30.087Z,9.23
2017-09-16T04:12:30.056Z,9.24
2017-09-16T04:13:30.037Z,9.23
2017-09-16T04:14:30.012Z,9.27
2017-09-16T04:15:29.991Z,9.37
2017-09-16T04:16:29.961Z,9.23
2017-09-16T04:17:29.938Z,9.24
2017-09-16T04:18:29.917Z,9.4
2017-09-16T04:19:29.893Z,9.42
2017-09-16T04:20:29.864Z,9.27
2017-09-16T04:21:29.845Z,9.35
2017-09-16T04:22:29.822Z,9.4
2017-09-16T04:23:29.800Z,9.27
2017-09-16T04:24:29.774Z,9.37
2017-09-16T04:25:29.752Z,9.26
2017-09-16T04:26:29.737Z,9.37
2017-09-16T04:27:29.705Z,9.42
2017-09-16T04:28:29.694Z,9.35
2017-09-16T04:29:29.651Z,9.32
2017-09-16T04:30:29.642Z,9.41
2017-09-16T04:31:29.607Z,9.32
2017-09-16T04:32:29.638Z,9.32
2017-09-16T04:33:29.559Z,9.37
2017-09-16T04:34:29.536Z,9.37
2017-09-16T04:35:29.520Z,9.34
2017-09-16T04:36:29.490Z,9.24
2017-09-16T04:37:29.165Z,9.41
2017-09-16T04:38:29.444Z,9.31
2017-09-16T04:39:29.425Z,9.31
2017-09-16T04:40:29.088Z,9.45
2017-09-16T04:41:29.376Z,9.44
2017-09-16T04:42:29.352Z,9.48
2017-09-16T04:43:29.328Z,9.38
2017-09-16T04:44:29.305Z,9.3
2017-09-16T04:45:29.282Z,9.41
2017-09-16T04:46:29.257Z,9.42
2017-09-16T04:47:29.231Z,9.52
2017-09-16T04:48:29.212Z,9.42
2017-09-16T04:49:29.181Z,9.48
2017-09-16T04:50:29.174Z,9.41
2017-09-16T04:51:29.139Z,9.38
2017-09-16T04:52:29.119Z,9.42
2017-09-16T04:53:29.112Z,9.5
2017-09-16T04:54:29.069Z,9.5
2017-09-16T04:55:29.040Z,9.42
2017-09-16T04:56:29.265Z,9.48
2017-09-16T04:57:29.008Z,9.38
2017-09-16T04:58:28.973Z,9.5
2017-09-16T04:59:28.953Z,9.5
2017-09-16T05:00:28.933Z,9.49
2017-09-16T05:01:28.908Z,9.56
2017-09-16T05:02:28.931Z,9.49
2017-09-16T05:03:29.066Z,9.55
2017-09-16T05:04:28.868Z,9.55
2017-09-16T05:05:28.808Z,9.55
2017-09-16T05:06:28.789Z,9.56
2017-09-16T05:07:28.765Z,9.58
2017-09-16T05:08:28.733Z,9.56
2017-09-16T05:09:28.722Z,9.58
2017-09-16T05:10:28.694Z,9.5
2017-09-16T05:11:28.666Z,9.56
2017-09-16T05:12:28.659Z,9.59
2017-09-16T05:13:28.632Z,9.59
2017-09-16T05:14:28.653Z,9.5
2017-09-16T05:15:28.584Z,9.53
2017-09-16T05:16:28.564Z,9.53
2017-09-16T05:17:28.527Z,9.52
2017-09-16T05:18:28.516Z,9.49
2017-09-16T05:19:28.484Z,9.55
2017-09-16T05:20:28.474Z,9.63
2017-09-16T05:21:28.131Z,9.53
2017-09-16T05:22:28.415Z,9.59
2017-09-16T05:23:28.398Z,9.6
2017-09-16T05:24:28.361Z,9.5
2017-09-16T05:25:28.571Z,9.65
2017-09-16T05:26:28.326Z,9.62
2017-09-16T05:27:28.303Z,9.65
2017-09-16T05:28:27.961Z,9.65
2017-09-16T05:29:28.482Z,9.65
2017-09-16T05:30:28.225Z,9.65
2017-09-16T05:31:28.206Z,9.65
2017-09-16T05:32:28.181Z,9.65
2017-09-16T05:33:28.155Z,9.65
2017-09-16T05:34:28.137Z,9.7
2017-09-16T05:35:28.115Z,9.63
2017-09-16T05:36:27.791Z,9.67
2017-09-16T05:37:28.081Z,9.71
2017-09-16T05:38:28.050Z,9.63
2017-09-16T05:39:28.025Z,9.75
2017-09-16T05:40:27.997Z,9.67
2017-09-16T05:41:27.978Z,9.75
2017-09-16T05:42:27.949Z,9.75
2017-09-16T05:43:27.924Z,9.77
2017-09-16T05:44:27.908Z,9.7
2017-09-16T05:45:27.878Z,9.74
2017-09-16T05:46:27.856Z,9.68
2017-09-16T05:47:27.829Z,9.75
2017-09-16T05:48:27.817Z,9.74
2017-09-16T05:49:27.782Z,9.77
2017-09-16T05:50:27.761Z,9.78
2017-09-16T05:51:27.428Z,9.7
2017-09-16T05:52:27.718Z,9.78
2017-09-16T05:53:27.693Z,9.81
2017-09-16T05:54:27.666Z,9.81
2017-09-16T05:55:27.654Z,9.85
2017-09-16T05:56:27.620Z,9.88
2017-09-16T05:57:27.599Z,9.83
2017-09-16T05:58:27.577Z,9.88
2017-09-16T05:59:27.554Z,9.86
2017-09-16T06:00:27.215Z,9.98
2017-09-16T06:01:27.502Z,10.01
2017-09-16T06:02:27.475Z,9.93
2017-09-16T06:03:27.457Z,9.92
2017-09-16T06:04:27.432Z,9.93
2017-09-16T06:05:27.413Z,9.96
2017-09-16T06:06:27.388Z,10.09
2017-09-16T06:07:27.364Z,10.04
2017-09-16T06:08:41.947Z,10.07
2017-09-16T06:09:27.008Z,10.09
2017-09-16T06:10:27.299Z,10.13
2017-09-16T06:11:27.279Z,10.11
2017-09-16T06:12:27.250Z,10.07
2017-09-16T06:13:27.226Z,10.2
2017-09-16T06:14:27.259Z,10.1
2017-09-16T06:15:27.186Z,10.18
2017-09-16T06:16:26.848Z,10.17
2017-09-16T06:17:27.136Z,10.2
2017-09-16T06:18:27.127Z,10.24
2017-09-16T06:19:27.084Z,10.18
2017-09-16T06:20:27.072Z,10.2
2017-09-16T06:21:27.046Z,10.18
2017-09-16T06:22:27.019Z,10.16
2017-09-16T06:23:26.999Z,10.17
2017-09-16T06:24:26.974Z,10.18
2017-09-16T06:25:26.955Z,10.18
2017-09-16T06:26:26.926Z,10.18
2017-09-16T06:27:26.904Z,10.25
2017-09-16T06:28:26.881Z,10.18
2017-09-16T06:29:26.858Z,10.31
2017-09-16T06:30:26.857Z,10.31
2017-09-16T06:31:41.418Z,10.29
2017-09-16T06:32:26.792Z,10.29
2017-09-16T06:33:26.760Z,10.35
2017-09-16T06:34:26.745Z,10.38
2017-09-16T06:35:26.716Z,10.32
2017-09-16T06:36:26.705Z,10.42
2017-09-16T06:37:26.672Z,10.42
2017-09-16T06:38:26.654Z,10.39
2017-09-16T06:39:26.624Z,10.42
2017-09-16T06:40:26.602Z,10.44
2017-09-16T06:41:26.583Z,10.38
2017-09-16T06:42:26.564Z,10.54
2017-09-16T06:43:26.543Z,10.51
2017-09-16T06:44:26.509Z,10.55
2017-09-16T06:45:26.492Z,10.54
2017-09-16T06:46:26.471Z,10.49
2017-09-16T06:47:26.444Z,10.66
2017-09-16T06:48:26.420Z,10.49
2017-09-16T06:49:26.397Z,10.57
2017-09-16T06:50:26.374Z,10.62
2017-09-16T06:51:26.355Z,10.6
2017-09-16T06:52:26.334Z,10.65
2017-09-16T06:53:26.314Z,10.57
2017-09-16T06:54:26.288Z,10.63
2017-09-16T06:55:26.258Z,10.72
2017-09-16T06:56:26.239Z,10.8
2017-09-16T06:57:26.267Z,10.81
2017-09-16T06:58:26.194Z,10.83
2017-09-16T06:59:26.171Z,10.78
2017-09-16T07:00:26.184Z,10.84
2017-09-16T07:01:26.120Z,11.02
2017-09-16T07:02:26.104Z,10.98
2017-09-16T07:03:26.080Z,11.13
2017-09-16T07:04:26.253Z,11.54
2017-09-16T07:05:26.042Z,11.97
2017-09-16T07:06:26.014Z,12.59
2017-09-16T07:07:26.002Z,13.13
2017-09-16T07:08:25.971Z,13.69
2017-09-16T07:09:25.957Z,14.23
2017-09-16T07:10:25.922Z,14.63
2017-09-16T07:11:25.910Z,15.13
2017-09-16T07:12:25.883Z,15.59
2017-09-16T07:13:25.866Z,15.96
2017-09-16T07:14:25.842Z,16.45
2017-09-16T07:15:25.518Z,16.85
2017-09-16T07:16:25.802Z,17.21
2017-09-16T07:17:25.790Z,17.51
2017-09-16T07:18:25.758Z,17.74
2017-09-16T07:19:25.745Z,17.98
2017-09-16T07:20:25.716Z,18.29
2017-09-16T07:21:25.696Z,18.41
2017-09-16T07:22:25.682Z,18.53
2017-09-16T07:23:25.660Z,18.78
2017-09-16T07:24:25.642Z,19.09
2017-09-16T07:25:25.635Z,19.17
2017-09-16T07:26:25.302Z,19.25
2017-09-16T07:27:25.327Z,19.4
2017-09-16T07:28:25.260Z,19.52
2017-09-16T07:29:24.940Z,19.64
2017-09-16T07:30:25.536Z,19.76
2017-09-16T07:31:25.520Z,19.86
2017-09-16T07:32:25.506Z,19.97
2017-09-16T07:33:25.190Z,20.15
2017-09-16T07:34:25.508Z,20.41
2017-09-16T07:35:25.460Z,20.5
2017-09-16T07:36:25.432Z,20.71
2017-09-16T07:37:25.414Z,20.87
2017-09-16T07:38:25.402Z,20.87
2017-09-16T07:39:25.392Z,21.12
2017-09-16T07:40:25.373Z,21.31
2017-09-16T07:41:25.356Z,21.38
2017-09-16T07:42:25.332Z,21.68
2017-09-16T07:43:25.324Z,21.52
2017-09-16T07:44:24.997Z,21.36
2017-09-16T07:45:25.296Z,21.12
2017-09-16T07:46:25.284Z,20.76
2017-09-16T07:47:25.264Z,20.38
2017-09-16T07:48:25.248Z,20.19
2017-09-16T07:49:25.231Z,19.95
2017-09-16T07:50:25.217Z,20
2017-09-16T07:51:25.235Z,20.3
2017-09-16T07:52:25.185Z,20.76
2017-09-16T07:53:25.178Z,20.97
2017-09-16T07:54:25.166Z,21.36
2017-09-16T07:55:25.140Z,21.64
2017-09-16T07:56:25.122Z,21.91
2017-09-16T07:57:25.106Z,22.15
2017-09-16T07:58:24.781Z,22.21
2017-09-16T07:59:25.078Z,22.38
2017-09-16T08:00:24.757Z,22.54
2017-09-16T08:01:25.094Z,22.51
2017-09-16T08:02:24.724Z,22.81
2017-09-16T08:03:25.027Z,23.01
2017-09-16T08:04:25.013Z,23.04
2017-09-16T08:05:24.685Z,22.93
2017-09-16T08:06:24.980Z,22.63
2017-09-16T08:07:24.964Z,22.2
2017-09-16T08:08:24.647Z,21.67
2017-09-16T08:09:24.936Z,21.21
2017-09-16T08:10:24.941Z,20.79
2017-09-16T08:11:24.919Z,20.5
2017-09-16T08:12:24.896Z,20.22
2017-09-16T08:13:24.570Z,20.17
2017-09-16T08:14:25.083Z,19.97
2017-09-16T08:15:24.957Z,19.92
2017-09-16T08:16:24.839Z,20.27
2017-09-16T08:17:24.822Z,20.9
2017-09-16T08:18:24.504Z,21.22
2017-09-16T08:19:24.794Z,21.51
2017-09-16T08:20:24.780Z,21.85
2017-09-16T08:21:24.464Z,22.26
2017-09-16T08:22:24.440Z,22.54
2017-09-16T08:23:24.740Z,22.84
2017-09-16T08:24:24.717Z,23.04
2017-09-16T08:25:24.753Z,23.39
2017-09-16T08:26:24.697Z,23.67
2017-09-16T08:27:24.682Z,23.78
2017-09-16T08:28:24.673Z,24
2017-09-16T08:29:24.653Z,24.06
2017-09-16T08:30:24.646Z,24.24
2017-09-16T08:31:24.634Z,24.19
2017-09-16T08:32:24.624Z,24.42
2017-09-16T08:33:24.616Z,24.63
2017-09-16T08:34:24.287Z,24.75
2017-09-16T08:35:24.271Z,24.94
2017-09-16T08:36:24.579Z,25.11
2017-09-16T08:37:24.248Z,25.2
2017-09-16T08:38:23.923Z,25.09
2017-09-16T08:39:24.535Z,25.14
2017-09-16T08:40:24.211Z,24.98
2017-09-16T08:41:24.503Z,24.66
2017-09-16T08:42:24.506Z,24.26
2017-09-16T08:43:24.488Z,23.92
2017-09-16T08:44:24.468Z,23.93
2017-09-16T08:45:24.460Z,23.94
2017-09-16T08:46:24.441Z,23.63
2017-09-16T08:47:24.441Z,23.38
2017-09-16T08:48:24.114Z,23.09
2017-09-16T08:49:24.411Z,22.88
2017-09-16T08:50:24.396Z,22.63
2017-09-16T08:51:24.077Z,22.49
2017-09-16T08:52:24.372Z,22.04
2017-09-16T08:53:24.359Z,21.58
2017-09-16T08:54:24.342Z,21.13
2017-09-16T08:55:24.334Z,20.63
2017-09-16T08:56:24.313Z,19.97
2017-09-16T08:57:24.300Z,19.46
2017-09-16T08:58:24.295Z,19.16
2017-09-16T08:59:23.961Z,19.13
2017-09-16T09:00:24.258Z,19.3
2017-09-16T09:01:23.935Z,19.42
2017-09-16T09:02:24.231Z,19.45
2017-09-16T09:03:24.217Z,19.65
2017-09-16T09:04:24.212Z,19.89
2017-09-16T09:05:24.180Z,19.76
2017-09-16T09:06:24.163Z,19.58
2017-09-16T09:07:24.159Z,19.35
2017-09-16T09:08:23.824Z,19.24
2017-09-16T09:09:24.117Z,19.09
2017-09-16T09:10:24.109Z,18.9
2017-09-16T09:11:24.083Z,18.71
2017-09-16T09:12:24.065Z,18.74
2017-09-16T09:13:24.058Z,18.65
2017-09-16T09:14:24.037Z,18.54
2017-09-16T09:15:24.067Z,18.54
2017-09-16T09:16:23.780Z,18.53
2017-09-16T09:17:23.982Z,18.62
2017-09-16T09:18:23.961Z,18.38
2017-09-16T09:19:23.975Z,18.31
2017-09-16T09:20:23.934Z,18.17
2017-09-16T09:21:23.908Z,17.96
2017-09-16T09:22:23.895Z,17.96
2017-09-16T09:23:23.883Z,17.74
2017-09-16T09:24:23.873Z,17.7
2017-09-16T09:25:23.840Z,17.62
2017-09-16T09:26:23.830Z,17.33
2017-09-16T09:27:23.802Z,17.2
2017-09-16T09:28:23.785Z,17.05
2017-09-16T09:29:23.775Z,16.88
2017-09-16T09:30:23.742Z,16.87
2017-09-16T09:31:23.425Z,16.75
2017-09-16T09:32:23.407Z,16.91
2017-09-16T09:33:23.744Z,17.18
2017-09-16T09:34:23.671Z,17.25
2017-09-16T09:35:23.651Z,17.68
2017-09-16T09:36:23.635Z,18.1
2017-09-16T09:37:23.630Z,18.13
2017-09-16T09:38:23.605Z,18.23
2017-09-16T09:39:23.590Z,18.5
2017-09-16T09:40:23.561Z,18.72
2017-09-16T09:41:23.239Z,19.06
2017-09-16T09:42:23.525Z,19.09
2017-09-16T09:43:23.510Z,18.87
2017-09-16T09:44:23.497Z,18.71
2017-09-16T09:45:23.473Z,18.75
2017-09-16T09:46:23.458Z,19.21
2017-09-16T09:47:23.433Z,19.42
2017-09-16T09:48:23.425Z,19.67
2017-09-16T09:49:23.396Z,19.83
2017-09-16T09:50:23.383Z,19.78
2017-09-16T09:51:23.366Z,19.71
2017-09-16T09:52:23.345Z,19.53
2017-09-16T09:53:23.336Z,19.24
2017-09-16T09:54:23.310Z,19.15
2017-09-16T09:55:23.291Z,18.71
2017-09-16T09:56:22.970Z,18.38
2017-09-16T09:57:23.259Z,18.26
2017-09-16T09:58:23.240Z,18.04
2017-09-16T09:59:23.223Z,18.02
2017-09-16T10:00:23.207Z,17.87
2017-09-16T10:01:23.186Z,17.91
2017-09-16T10:02:23.173Z,17.71
2017-09-16T10:03:23.156Z,17.55
2017-09-16T10:04:23.133Z,17.43
2017-09-16T10:05:23.113Z,17.36
2017-09-16T10:06:23.098Z,17.33
2017-09-16T10:07:23.085Z,17.15
2017-09-16T10:08:23.060Z,16.98
2017-09-16T10:09:23.038Z,17
2017-09-16T10:10:23.019Z,17.03
2017-09-16T10:11:23.005Z,16.85
2017-09-16T10:12:22.982Z,16.95
2017-09-16T10:13:22.973Z,16.95
2017-09-16T10:14:22.954Z,16.96
2017-09-16T10:15:22.625Z,16.9
2017-09-16T10:16:22.908Z,16.91
2017-09-16T10:17:22.588Z,16.96
2017-09-16T10:18:22.561Z,16.91
2017-09-16T10:19:22.856Z,16.95
2017-09-16T10:20:22.528Z,16.87
2017-09-16T10:21:22.814Z,16.9
2017-09-16T10:22:22.794Z,16.88
2017-09-16T10:23:22.774Z,16.87
2017-09-16T10:24:22.748Z,17.02
2017-09-16T10:25:22.732Z,17.27
2017-09-16T10:26:22.408Z,17.35
2017-09-16T10:27:22.692Z,17.42
2017-09-16T10:28:22.684Z,17.38
2017-09-16T10:29:22.661Z,17.49
2017-09-16T10:30:22.635Z,17.66
2017-09-16T10:31:22.618Z,17.65
2017-09-16T10:32:22.606Z,17.57
2017-09-16T10:33:22.631Z,17.62
2017-09-16T10:34:22.561Z,17.62
2017-09-16T10:35:22.543Z,17.65
2017-09-16T10:36:22.521Z,17.74
2017-09-16T10:37:22.498Z,17.74
2017-09-16T10:38:22.481Z,17.86
2017-09-16T10:39:22.464Z,17.81
2017-09-16T10:40:22.447Z,17.91
2017-09-16T10:41:22.428Z,17.84
2017-09-16T10:42:22.407Z,18.01
2017-09-16T10:43:22.385Z,17.95
2017-09-16T10:44:22.369Z,18.01
2017-09-16T10:45:22.044Z,17.98
2017-09-16T10:46:22.335Z,17.99
2017-09-16T10:47:22.374Z,17.98
2017-09-16T10:48:22.350Z,18.07
2017-09-16T10:49:22.281Z,17.96
2017-09-16T10:50:22.266Z,17.87
2017-09-16T10:51:22.240Z,17.92
2017-09-16T10:52:22.217Z,17.86
2017-09-16T10:53:22.196Z,17.92
2017-09-16T10:54:22.183Z,18.05
2017-09-16T10:55:22.162Z,17.96
2017-09-16T10:56:22.144Z,17.87
2017-09-16T10:57:22.118Z,17.98
2017-09-16T10:58:22.106Z,17.89
2017-09-16T10:59:22.081Z,17.86
2017-09-16T11:00:22.058Z,17.8
2017-09-16T11:01:22.043Z,17.8
2017-09-16T11:02:22.026Z,17.66
2017-09-16T11:03:22.004Z,17.66
2017-09-16T11:04:21.985Z,17.73
2017-09-16T11:05:21.965Z,17.71
2017-09-16T11:06:21.635Z,17.86
2017-09-16T11:07:21.978Z,17.87
2017-09-16T11:08:21.959Z,17.89
2017-09-16T11:09:21.885Z,17.83
2017-09-16T11:10:21.871Z,17.8
2017-09-16T11:11:21.849Z,17.79
2017-09-16T11:12:21.825Z,17.91
2017-09-16T11:13:21.810Z,17.94
2017-09-16T11:14:21.811Z,17.92
2017-09-16T11:15:21.775Z,17.95
2017-09-16T11:16:21.756Z,17.99
2017-09-16T11:17:21.739Z,18.09
2017-09-16T11:18:21.714Z,17.96
2017-09-16T11:19:21.692Z,17.84
2017-09-16T11:20:21.678Z,17.94
2017-09-16T11:21:21.658Z,17.76
2017-09-16T11:22:21.649Z,17.76
2017-09-16T11:23:21.614Z,17.73
2017-09-16T11:24:21.595Z,17.81
2017-09-16T11:25:21.575Z,17.74
2017-09-16T11:26:21.554Z,17.77
2017-09-16T11:27:21.547Z,17.74
2017-09-16T11:28:21.522Z,17.71
2017-09-16T11:29:21.501Z,17.63
2017-09-16T11:30:21.487Z,17.77
2017-09-16T11:31:21.462Z,17.71
2017-09-16T11:32:21.443Z,17.71
2017-09-16T11:33:21.424Z,17.8
2017-09-16T11:34:21.428Z,17.77
2017-09-16T11:35:21.380Z,17.74
2017-09-16T11:36:21.372Z,17.71
2017-09-16T11:37:21.357Z,17.7
2017-09-16T11:38:21.330Z,17.62
2017-09-16T11:39:21.311Z,17.53
2017-09-16T11:40:21.287Z,17.53
2017-09-16T11:41:21.325Z,17.4
2017-09-16T11:42:21.255Z,17.36
2017-09-16T11:43:21.231Z,17.35
2017-09-16T11:44:21.219Z,17.25
2017-09-16T11:45:21.191Z,17.18
2017-09-16T11:46:21.180Z,16.99
2017-09-16T11:47:21.154Z,16.91
2017-09-16T11:48:21.139Z,16.73
2017-09-16T11:49:20.813Z,16.65
2017-09-16T11:50:20.794Z,16.63
2017-09-16T11:51:21.102Z,16.5
2017-09-16T11:52:21.062Z,16.44
2017-09-16T11:53:20.728Z,16.36
2017-09-16T11:54:21.027Z,16.26
2017-09-16T11:55:20.689Z,16.18
2017-09-16T11:56:20.975Z,16.25
2017-09-16T11:57:20.957Z,16.25
2017-09-16T11:58:20.942Z,16.08
2017-09-16T11:59:20.661Z,16.14
2017-09-16T12:00:20.888Z,16.11
2017-09-16T12:01:20.884Z,15.95
2017-09-16T12:02:20.859Z,15.98
2017-09-16T12:03:20.586Z,15.86
2017-09-16T12:04:20.811Z,15.85
2017-09-16T12:05:20.791Z,15.77
2017-09-16T12:06:20.776Z,15.71
2017-09-16T12:07:20.746Z,15.6
2017-09-16T12:08:20.729Z,15.64
2017-09-16T12:09:20.708Z,15.55
2017-09-16T12:10:20.688Z,15.53
2017-09-16T12:11:20.664Z,15.51
2017-09-16T12:12:20.658Z,15.49
2017-09-16T12:13:20.633Z,15.52
2017-09-16T12:14:20.302Z,15.37
2017-09-16T12:15:20.593Z,15.51
2017-09-16T12:16:20.566Z,15.51
2017-09-16T12:17:20.543Z,15.46
2017-09-16T12:18:20.531Z,15.59
2017-09-16T12:19:20.512Z,15.66
2017-09-16T12:20:20.477Z,15.59
2017-09-16T12:21:20.479Z,15.68
2017-09-16T12:22:20.445Z,15.49
2017-09-16T12:23:20.425Z,15.52
2017-09-16T12:24:20.101Z,15.52
2017-09-16T12:25:20.119Z,15.43
2017-09-16T12:26:20.360Z,15.37
2017-09-16T12:27:20.029Z,15.3
2017-09-16T12:28:20.317Z,15.34
2017-09-16T12:29:20.303Z,15.34
2017-09-16T12:30:20.271Z,15.35
2017-09-16T12:31:20.265Z,15.37
2017-09-16T12:32:20.230Z,15.33
2017-09-16T12:33:20.209Z,15.31
2017-09-16T12:34:19.886Z,15.34
2017-09-16T12:35:20.168Z,15.3
2017-09-16T12:36:20.157Z,15.35
2017-09-16T12:37:20.133Z,15.4
2017-09-16T12:38:20.113Z,15.43
2017-09-16T12:39:20.083Z,15.52
2017-09-16T12:40:20.068Z,15.55
2017-09-16T12:41:20.053Z,15.64
2017-09-16T12:42:20.025Z,15.81
2017-09-16T12:43:20.003Z,15.89
2017-09-16T12:44:19.981Z,15.86
2017-09-16T12:45:19.976Z,15.91
2017-09-16T12:46:19.945Z,15.99
2017-09-16T12:47:19.916Z,15.95
2017-09-16T12:48:19.598Z,16.03
2017-09-16T12:49:19.887Z,15.98
2017-09-16T12:50:19.864Z,16.03
2017-09-16T12:51:19.851Z,16.11
2017-09-16T12:52:19.824Z,16.04
2017-09-16T12:53:19.805Z,16.08
2017-09-16T12:54:19.784Z,16.04
2017-09-16T12:55:19.765Z,16.11
2017-09-16T12:56:19.742Z,16.13
2017-09-16T12:57:19.720Z,16.11
2017-09-16T12:58:19.689Z,16.01
2017-09-16T12:59:19.681Z,16.01
2017-09-16T13:00:19.665Z,15.98
2017-09-16T13:01:19.634Z,15.93
2017-09-16T13:02:19.618Z,16.01
2017-09-16T13:03:19.292Z,15.99
2017-09-16T13:04:19.576Z,15.96
2017-09-16T13:05:19.558Z,15.92
2017-09-16T13:06:19.591Z,15.98
2017-09-16T13:07:19.225Z,16.03